sensor_id;sensor_type;location;lat;lon;timestamp;P1;durP1;ratioP1;P2;durP2;ratioP2
6547;SDS011;3307;52.416;16.862;2022-11-03T00:02:23;22.33;;;13.17;;
6547;SDS011;3307;52.416;16.862;2022-11-03T00:04:48;17.80;;;14.07;;
6547;SDS011;3307;52.416;16.862;2022-11-03T00:07:20;19.27;;;14.23;;
6547;SDS011;3307;52.416;16.862;2022-11-03T00:09:46;20.10;;;14.88;;
6547;SDS011;3307;52.416;16.862;2022-11-03T00:12:11;18.27;;;13.60;;
6547;SDS011;3307;52.416;16.862;2022-11-03T00:14:37;20.47;;;15.00;;
6547;SDS011;3307;52.416;16.862;2022-11-03T00:17:02;19.53;;;13.53;;
6547;SDS011;3307;52.416;16.862;2022-11-03T00:19:28;21.23;;;14.30;;
6547;SDS011;3307;52.416;16.862;2022-11-03T00:21:53;17.90;;;13.93;;
6547;SDS011;3307;52.416;16.862;2022-11-03T00:24:19;19.00;;;13.20;;
6547;SDS011;3307;52.416;16.862;2022-11-03T00:26:44;18.63;;;14.20;;
6547;SDS011;3307;52.416;16.862;2022-11-03T00:29:10;21.87;;;14.40;;
6547;SDS011;3307;52.416;16.862;2022-11-03T00:31:37;22.55;;;14.13;;
6547;SDS011;3307;52.416;16.862;2022-11-03T00:34:04;19.75;;;14.65;;
6547;SDS011;3307;52.416;16.862;2022-11-03T00:36:31;17.87;;;13.60;;
6547;SDS011;3307;52.416;16.862;2022-11-03T00:38:58;22.55;;;14.60;;
6547;SDS011;3307;52.416;16.862;2022-11-03T00:41:24;17.93;;;13.57;;
6547;SDS011;3307;52.416;16.862;2022-11-03T00:43:50;22.35;;;15.95;;
6547;SDS011;3307;52.416;16.862;2022-11-03T00:46:16;15.10;;;13.32;;
6547;SDS011;3307;52.416;16.862;2022-11-03T00:48:42;18.58;;;14.05;;
6547;SDS011;3307;52.416;16.862;2022-11-03T00:51:12;17.63;;;13.50;;
6547;SDS011;3307;52.416;16.862;2022-11-03T00:53:45;18.00;;;13.32;;
6547;SDS011;3307;52.416;16.862;2022-11-03T00:56:13;19.15;;;14.27;;
6547;SDS011;3307;52.416;16.862;2022-11-03T00:58:40;20.13;;;14.15;;
6547;SDS011;3307;52.416;16.862;2022-11-03T01:01:07;18.00;;;13.70;;
6547;SDS011;3307;52.416;16.862;2022-11-03T01:03:36;18.80;;;14.23;;
6547;SDS011;3307;52.416;16.862;2022-11-03T01:06:10;19.38;;;13.25;;
6547;SDS011;3307;52.416;16.862;2022-11-03T01:08:54;23.13;;;14.23;;
6547;SDS011;3307;52.416;16.862;2022-11-03T01:11:21;16.03;;;12.60;;
6547;SDS011;3307;52.416;16.862;2022-11-03T01:14:07;17.02;;;14.02;;
6547;SDS011;3307;52.416;16.862;2022-11-03T01:16:36;18.10;;;14.60;;
6547;SDS011;3307;52.416;16.862;2022-11-03T01:19:02;23.63;;;15.47;;
6547;SDS011;3307;52.416;16.862;2022-11-03T01:21:28;18.40;;;14.43;;
6547;SDS011;3307;52.416;16.862;2022-11-03T01:23:53;24.27;;;14.47;;
6547;SDS011;3307;52.416;16.862;2022-11-03T01:26:18;22.80;;;15.43;;
6547;SDS011;3307;52.416;16.862;2022-11-03T01:28:45;18.10;;;13.90;;
6547;SDS011;3307;52.416;16.862;2022-11-03T01:31:12;19.33;;;13.93;;
6547;SDS011;3307;52.416;16.862;2022-11-03T01:33:42;20.80;;;14.32;;
6547;SDS011;3307;52.416;16.862;2022-11-03T01:36:09;17.65;;;14.63;;
6547;SDS011;3307;52.416;16.862;2022-11-03T01:38:35;18.30;;;13.57;;
6547;SDS011;3307;52.416;16.862;2022-11-03T01:41:01;19.33;;;15.23;;
6547;SDS011;3307;52.416;16.862;2022-11-03T01:43:28;20.90;;;14.48;;
6547;SDS011;3307;52.416;16.862;2022-11-03T01:45:59;19.98;;;13.40;;
6547;SDS011;3307;52.416;16.862;2022-11-03T01:48:28;18.05;;;13.55;;
6547;SDS011;3307;52.416;16.862;2022-11-03T01:50:53;21.37;;;15.67;;
6547;SDS011;3307;52.416;16.862;2022-11-03T01:53:19;18.77;;;13.47;;
6547;SDS011;3307;52.416;16.862;2022-11-03T01:55:45;20.67;;;13.57;;
6547;SDS011;3307;52.416;16.862;2022-11-03T01:58:13;18.92;;;14.65;;
6547;SDS011;3307;52.416;16.862;2022-11-03T02:00:48;27.70;;;13.98;;
6547;SDS011;3307;52.416;16.862;2022-11-03T02:03:15;19.77;;;13.43;;
6547;SDS011;3307;52.416;16.862;2022-11-03T02:05:41;18.40;;;14.17;;
6547;SDS011;3307;52.416;16.862;2022-11-03T02:08:12;19.88;;;14.50;;
6547;SDS011;3307;52.416;16.862;2022-11-03T02:10:40;17.73;;;13.02;;
6547;SDS011;3307;52.416;16.862;2022-11-03T02:13:09;18.57;;;12.40;;
6547;SDS011;3307;52.416;16.862;2022-11-03T02:15:38;17.95;;;13.20;;
6547;SDS011;3307;52.416;16.862;2022-11-03T02:18:04;23.03;;;14.00;;
6547;SDS011;3307;52.416;16.862;2022-11-03T02:20:30;17.58;;;12.98;;
6547;SDS011;3307;52.416;16.862;2022-11-03T02:23:05;24.23;;;13.07;;
6547;SDS011;3307;52.416;16.862;2022-11-03T02:28:14;18.27;;;11.93;;
6547;SDS011;3307;52.416;16.862;2022-11-03T02:36:19;23.63;;;12.32;;
6547;SDS011;3307;52.416;16.862;2022-11-03T02:41:28;16.63;;;11.90;;
6547;SDS011;3307;52.416;16.862;2022-11-03T02:43:55;16.25;;;12.88;;
6547;SDS011;3307;52.416;16.862;2022-11-03T02:46:21;15.98;;;12.15;;
6547;SDS011;3307;52.416;16.862;2022-11-03T02:48:48;13.88;;;11.55;;
6547;SDS011;3307;52.416;16.862;2022-11-03T02:51:13;16.00;;;10.40;;
6547;SDS011;3307;52.416;16.862;2022-11-03T02:53:41;15.90;;;12.13;;
6547;SDS011;3307;52.416;16.862;2022-11-03T02:56:15;13.90;;;10.82;;
6547;SDS011;3307;52.416;16.862;2022-11-03T03:04:12;13.88;;;10.77;;
6547;SDS011;3307;52.416;16.862;2022-11-03T03:07:01;16.98;;;12.15;;
6547;SDS011;3307;52.416;16.862;2022-11-03T03:09:31;17.02;;;11.65;;
6547;SDS011;3307;52.416;16.862;2022-11-03T03:12:04;13.77;;;10.40;;
6547;SDS011;3307;52.416;16.862;2022-11-03T03:14:31;15.68;;;11.55;;
6547;SDS011;3307;52.416;16.862;2022-11-03T03:17:05;15.70;;;11.63;;
6547;SDS011;3307;52.416;16.862;2022-11-03T03:19:48;15.57;;;12.43;;
6547;SDS011;3307;52.416;16.862;2022-11-03T03:22:24;13.23;;;10.93;;
6547;SDS011;3307;52.416;16.862;2022-11-03T03:24:58;17.02;;;11.30;;
6547;SDS011;3307;52.416;16.862;2022-11-03T03:27:26;13.18;;;11.18;;
6547;SDS011;3307;52.416;16.862;2022-11-03T03:30:02;15.55;;;12.20;;
6547;SDS011;3307;52.416;16.862;2022-11-03T03:32:30;15.68;;;11.82;;
6547;SDS011;3307;52.416;16.862;2022-11-03T03:34:59;18.38;;;12.25;;
6547;SDS011;3307;52.416;16.862;2022-11-03T03:37:27;20.17;;;12.88;;
6547;SDS011;3307;52.416;16.862;2022-11-03T03:39:54;20.85;;;13.00;;
6547;SDS011;3307;52.416;16.862;2022-11-03T03:42:22;18.70;;;12.90;;
6547;SDS011;3307;52.416;16.862;2022-11-03T03:44:50;17.33;;;12.35;;
6547;SDS011;3307;52.416;16.862;2022-11-03T03:47:18;17.60;;;12.90;;
6547;SDS011;3307;52.416;16.862;2022-11-03T03:49:46;16.65;;;14.10;;
6547;SDS011;3307;52.416;16.862;2022-11-03T03:52:12;16.70;;;13.10;;
6547;SDS011;3307;52.416;16.862;2022-11-03T03:54:38;20.50;;;15.10;;
6547;SDS011;3307;52.416;16.862;2022-11-03T03:57:03;21.50;;;15.77;;
6547;SDS011;3307;52.416;16.862;2022-11-03T03:59:30;21.58;;;16.75;;
6547;SDS011;3307;52.416;16.862;2022-11-03T04:01:56;20.70;;;18.43;;
6547;SDS011;3307;52.416;16.862;2022-11-03T04:04:21;24.88;;;17.48;;
6547;SDS011;3307;52.416;16.862;2022-11-03T04:06:47;22.57;;;17.37;;
6547;SDS011;3307;52.416;16.862;2022-11-03T04:09:12;19.13;;;16.70;;
6547;SDS011;3307;52.416;16.862;2022-11-03T04:11:38;20.17;;;15.77;;
6547;SDS011;3307;52.416;16.862;2022-11-03T04:14:21;22.90;;;14.68;;
6547;SDS011;3307;52.416;16.862;2022-11-03T04:17:09;20.75;;;17.30;;
6547;SDS011;3307;52.416;16.862;2022-11-03T04:19:59;23.25;;;16.70;;
6547;SDS011;3307;52.416;16.862;2022-11-03T04:22:43;21.00;;;16.20;;
6547;SDS011;3307;52.416;16.862;2022-11-03T04:25:08;21.27;;;15.97;;
6547;SDS011;3307;52.416;16.862;2022-11-03T04:27:35;21.50;;;15.63;;
6547;SDS011;3307;52.416;16.862;2022-11-03T04:30:14;20.38;;;15.65;;
6547;SDS011;3307;52.416;16.862;2022-11-03T04:32:41;21.50;;;17.70;;
6547;SDS011;3307;52.416;16.862;2022-11-03T04:35:41;21.25;;;15.48;;
6547;SDS011;3307;52.416;16.862;2022-11-03T04:37:59;23.10;;;16.27;;
6547;SDS011;3307;52.416;16.862;2022-11-03T04:40:27;23.00;;;18.73;;
6547;SDS011;3307;52.416;16.862;2022-11-03T04:42:53;28.20;;;18.63;;
6547;SDS011;3307;52.416;16.862;2022-11-03T04:47:48;21.42;;;15.82;;
6547;SDS011;3307;52.416;16.862;2022-11-03T04:50:14;27.07;;;19.43;;
6547;SDS011;3307;52.416;16.862;2022-11-03T04:52:43;22.92;;;19.52;;
6547;SDS011;3307;52.416;16.862;2022-11-03T04:55:10;25.40;;;18.83;;
6547;SDS011;3307;52.416;16.862;2022-11-03T04:57:42;26.45;;;21.45;;
6547;SDS011;3307;52.416;16.862;2022-11-03T05:00:12;31.70;;;23.20;;
6547;SDS011;3307;52.416;16.862;2022-11-03T05:02:45;27.30;;;21.48;;
6547;SDS011;3307;52.416;16.862;2022-11-03T05:05:13;27.30;;;21.13;;
6547;SDS011;3307;52.416;16.862;2022-11-03T05:07:43;24.52;;;18.45;;
6547;SDS011;3307;52.416;16.862;2022-11-03T05:10:11;24.08;;;16.75;;
6547;SDS011;3307;52.416;16.862;2022-11-03T05:12:40;21.30;;;18.27;;
6547;SDS011;3307;52.416;16.862;2022-11-03T05:15:07;31.90;;;21.90;;
6547;SDS011;3307;52.416;16.862;2022-11-03T05:17:45;22.15;;;18.40;;
6547;SDS011;3307;52.416;16.862;2022-11-03T05:20:23;23.60;;;16.93;;
6547;SDS011;3307;52.416;16.862;2022-11-03T05:22:53;25.70;;;17.40;;
6547;SDS011;3307;52.416;16.862;2022-11-03T05:25:25;24.60;;;16.20;;
6547;SDS011;3307;52.416;16.862;2022-11-03T05:27:56;23.58;;;17.45;;
6547;SDS011;3307;52.416;16.862;2022-11-03T05:30:22;24.30;;;17.73;;
6547;SDS011;3307;52.416;16.862;2022-11-03T05:32:47;22.90;;;18.13;;
6547;SDS011;3307;52.416;16.862;2022-11-03T05:35:19;23.50;;;16.90;;
6547;SDS011;3307;52.416;16.862;2022-11-03T05:37:46;21.58;;;16.75;;
6547;SDS011;3307;52.416;16.862;2022-11-03T05:40:24;22.63;;;17.20;;
6547;SDS011;3307;52.416;16.862;2022-11-03T05:42:57;21.33;;;17.50;;
6547;SDS011;3307;52.416;16.862;2022-11-03T05:47:55;25.55;;;17.30;;
6547;SDS011;3307;52.416;16.862;2022-11-03T05:50:24;26.80;;;16.77;;
6547;SDS011;3307;52.416;16.862;2022-11-03T05:52:52;24.02;;;18.10;;
6547;SDS011;3307;52.416;16.862;2022-11-03T05:55:29;26.63;;;18.30;;
6547;SDS011;3307;52.416;16.862;2022-11-03T05:58:04;26.70;;;18.90;;
6547;SDS011;3307;52.416;16.862;2022-11-03T06:00:36;28.70;;;22.17;;
6547;SDS011;3307;52.416;16.862;2022-11-03T06:03:04;27.83;;;19.40;;
6547;SDS011;3307;52.416;16.862;2022-11-03T06:05:31;27.02;;;19.17;;
6547;SDS011;3307;52.416;16.862;2022-11-03T06:07:59;25.73;;;19.42;;
6547;SDS011;3307;52.416;16.862;2022-11-03T06:10:34;28.17;;;19.25;;
6547;SDS011;3307;52.416;16.862;2022-11-03T06:13:03;33.00;;;18.40;;
6547;SDS011;3307;52.416;16.862;2022-11-03T06:15:35;22.73;;;17.80;;
6547;SDS011;3307;52.416;16.862;2022-11-03T06:18:23;21.33;;;17.40;;
6547;SDS011;3307;52.416;16.862;2022-11-03T06:20:52;19.10;;;14.82;;
6547;SDS011;3307;52.416;16.862;2022-11-03T06:23:19;17.17;;;14.27;;
6547;SDS011;3307;52.416;16.862;2022-11-03T06:25:45;20.05;;;14.57;;
6547;SDS011;3307;52.416;16.862;2022-11-03T06:28:14;18.43;;;14.70;;
6547;SDS011;3307;52.416;16.862;2022-11-03T06:30:42;19.70;;;14.85;;
6547;SDS011;3307;52.416;16.862;2022-11-03T06:35:53;19.10;;;14.63;;
6547;SDS011;3307;52.416;16.862;2022-11-03T06:38:23;21.27;;;14.27;;
6547;SDS011;3307;52.416;16.862;2022-11-03T06:40:50;19.48;;;15.65;;
6547;SDS011;3307;52.416;16.862;2022-11-03T06:43:17;18.58;;;14.40;;
6547;SDS011;3307;52.416;16.862;2022-11-03T06:45:51;16.60;;;14.48;;
6547;SDS011;3307;52.416;16.862;2022-11-03T06:48:22;18.92;;;14.35;;
6547;SDS011;3307;52.416;16.862;2022-11-03T06:50:49;18.67;;;14.93;;
6547;SDS011;3307;52.416;16.862;2022-11-03T06:53:19;18.97;;;13.93;;
6547;SDS011;3307;52.416;16.862;2022-11-03T06:55:46;17.40;;;14.25;;
6547;SDS011;3307;52.416;16.862;2022-11-03T06:58:18;20.43;;;14.80;;
6547;SDS011;3307;52.416;16.862;2022-11-03T07:00:49;19.60;;;13.98;;
6547;SDS011;3307;52.416;16.862;2022-11-03T07:03:24;15.90;;;13.10;;
6547;SDS011;3307;52.416;16.862;2022-11-03T07:06:18;22.73;;;13.65;;
6547;SDS011;3307;52.416;16.862;2022-11-03T07:08:52;15.98;;;12.38;;
6547;SDS011;3307;52.416;16.862;2022-11-03T07:11:19;19.40;;;13.15;;
6547;SDS011;3307;52.416;16.862;2022-11-03T07:13:47;14.23;;;12.23;;
6547;SDS011;3307;52.416;16.862;2022-11-03T07:19:00;18.73;;;12.90;;
6547;SDS011;3307;52.416;16.862;2022-11-03T07:21:39;17.92;;;13.45;;
6547;SDS011;3307;52.416;16.862;2022-11-03T07:24:26;17.50;;;13.82;;
6547;SDS011;3307;52.416;16.862;2022-11-03T07:27:20;18.27;;;13.20;;
6547;SDS011;3307;52.416;16.862;2022-11-03T07:29:46;17.42;;;11.85;;
6547;SDS011;3307;52.416;16.862;2022-11-03T07:32:17;18.60;;;13.65;;
6547;SDS011;3307;52.416;16.862;2022-11-03T07:34:43;16.40;;;12.32;;
6547;SDS011;3307;52.416;16.862;2022-11-03T07:37:14;17.80;;;13.02;;
6547;SDS011;3307;52.416;16.862;2022-11-03T07:39:41;15.13;;;13.10;;
6547;SDS011;3307;52.416;16.862;2022-11-03T07:42:13;18.07;;;13.73;;
6547;SDS011;3307;52.416;16.862;2022-11-03T07:44:42;20.45;;;12.20;;
6547;SDS011;3307;52.416;16.862;2022-11-03T07:47:11;15.23;;;11.03;;
6547;SDS011;3307;52.416;16.862;2022-11-03T07:49:38;14.13;;;12.10;;
6547;SDS011;3307;52.416;16.862;2022-11-03T07:52:04;16.13;;;11.48;;
6547;SDS011;3307;52.416;16.862;2022-11-03T07:54:33;13.35;;;10.52;;
6547;SDS011;3307;52.416;16.862;2022-11-03T07:56:59;15.47;;;11.60;;
6547;SDS011;3307;52.416;16.862;2022-11-03T07:59:30;14.00;;;11.75;;
6547;SDS011;3307;52.416;16.862;2022-11-03T08:02:01;18.63;;;13.68;;
6547;SDS011;3307;52.416;16.862;2022-11-03T08:04:30;15.93;;;14.23;;
6547;SDS011;3307;52.416;16.862;2022-11-03T08:06:58;17.88;;;12.48;;
6547;SDS011;3307;52.416;16.862;2022-11-03T08:09:24;15.13;;;12.77;;
6547;SDS011;3307;52.416;16.862;2022-11-03T08:11:49;15.43;;;11.30;;
6547;SDS011;3307;52.416;16.862;2022-11-03T08:14:15;16.00;;;11.90;;
6547;SDS011;3307;52.416;16.862;2022-11-03T08:16:41;16.30;;;11.67;;
6547;SDS011;3307;52.416;16.862;2022-11-03T08:19:06;18.20;;;11.87;;
6547;SDS011;3307;52.416;16.862;2022-11-03T08:21:32;14.87;;;11.70;;
6547;SDS011;3307;52.416;16.862;2022-11-03T08:23:58;28.57;;;12.97;;
6547;SDS011;3307;52.416;16.862;2022-11-03T08:26:23;24.03;;;14.90;;
6547;SDS011;3307;52.416;16.862;2022-11-03T08:28:48;14.73;;;11.40;;
6547;SDS011;3307;52.416;16.862;2022-11-03T08:31:14;20.40;;;12.03;;
6547;SDS011;3307;52.416;16.862;2022-11-03T08:33:39;13.00;;;11.60;;
6547;SDS011;3307;52.416;16.862;2022-11-03T08:36:05;22.50;;;13.20;;
6547;SDS011;3307;52.416;16.862;2022-11-03T08:38:32;16.20;;;12.27;;
6547;SDS011;3307;52.416;16.862;2022-11-03T08:40:57;18.90;;;12.60;;
6547;SDS011;3307;52.416;16.862;2022-11-03T08:43:23;18.80;;;13.80;;
6547;SDS011;3307;52.416;16.862;2022-11-03T08:45:48;21.70;;;13.97;;
6547;SDS011;3307;52.416;16.862;2022-11-03T08:48:21;19.67;;;13.80;;
6547;SDS011;3307;52.416;16.862;2022-11-03T08:50:47;18.17;;;13.80;;
6547;SDS011;3307;52.416;16.862;2022-11-03T08:53:14;19.63;;;15.40;;
6547;SDS011;3307;52.416;16.862;2022-11-03T08:55:39;29.90;;;20.13;;
6547;SDS011;3307;52.416;16.862;2022-11-03T08:58:05;25.67;;;21.13;;
6547;SDS011;3307;52.416;16.862;2022-11-03T09:00:31;26.13;;;22.40;;
6547;SDS011;3307;52.416;16.862;2022-11-03T09:02:56;29.83;;;19.10;;
6547;SDS011;3307;52.416;16.862;2022-11-03T09:05:21;20.17;;;14.93;;
6547;SDS011;3307;52.416;16.862;2022-11-03T09:07:47;17.00;;;12.17;;
6547;SDS011;3307;52.416;16.862;2022-11-03T09:10:12;13.73;;;12.33;;
6547;SDS011;3307;52.416;16.862;2022-11-03T09:12:37;15.37;;;12.43;;
6547;SDS011;3307;52.416;16.862;2022-11-03T09:15:03;20.23;;;15.43;;
6547;SDS011;3307;52.416;16.862;2022-11-03T09:17:30;19.00;;;15.15;;
6547;SDS011;3307;52.416;16.862;2022-11-03T09:19:55;16.70;;;14.10;;
6547;SDS011;3307;52.416;16.862;2022-11-03T09:22:21;23.80;;;13.70;;
6547;SDS011;3307;52.416;16.862;2022-11-03T09:24:46;18.30;;;12.17;;
6547;SDS011;3307;52.416;16.862;2022-11-03T09:27:12;14.97;;;10.63;;
6547;SDS011;3307;52.416;16.862;2022-11-03T09:29:37;11.27;;;9.60;;
6547;SDS011;3307;52.416;16.862;2022-11-03T09:32:03;11.20;;;10.00;;
6547;SDS011;3307;52.416;16.862;2022-11-03T09:34:28;11.50;;;10.30;;
6547;SDS011;3307;52.416;16.862;2022-11-03T09:36:54;11.53;;;9.80;;
6547;SDS011;3307;52.416;16.862;2022-11-03T09:39:20;13.43;;;10.47;;
6547;SDS011;3307;52.416;16.862;2022-11-03T09:41:45;13.00;;;9.67;;
6547;SDS011;3307;52.416;16.862;2022-11-03T09:44:11;11.57;;;9.80;;
6547;SDS011;3307;52.416;16.862;2022-11-03T09:46:36;10.97;;;9.40;;
6547;SDS011;3307;52.416;16.862;2022-11-03T09:49:02;15.73;;;10.33;;
6547;SDS011;3307;52.416;16.862;2022-11-03T09:51:28;12.88;;;9.70;;
6547;SDS011;3307;52.416;16.862;2022-11-03T09:53:55;21.33;;;10.00;;
6547;SDS011;3307;52.416;16.862;2022-11-03T09:56:23;12.07;;;8.73;;
6547;SDS011;3307;52.416;16.862;2022-11-03T09:58:49;14.68;;;9.00;;
6547;SDS011;3307;52.416;16.862;2022-11-03T10:01:14;10.53;;;9.47;;
6547;SDS011;3307;52.416;16.862;2022-11-03T10:03:40;14.67;;;9.27;;
6547;SDS011;3307;52.416;16.862;2022-11-03T10:06:06;11.00;;;9.40;;
6547;SDS011;3307;52.416;16.862;2022-11-03T10:08:33;11.37;;;8.27;;
6547;SDS011;3307;52.416;16.862;2022-11-03T10:11:00;12.13;;;8.60;;
6547;SDS011;3307;52.416;16.862;2022-11-03T10:15:51;13.53;;;9.53;;
6547;SDS011;3307;52.416;16.862;2022-11-03T10:18:16;14.07;;;8.53;;
6547;SDS011;3307;52.416;16.862;2022-11-03T10:20:43;15.00;;;8.32;;
6547;SDS011;3307;52.416;16.862;2022-11-03T10:23:08;13.87;;;7.63;;
6547;SDS011;3307;52.416;16.862;2022-11-03T10:25:37;12.33;;;7.90;;
6547;SDS011;3307;52.416;16.862;2022-11-03T10:33:35;9.63;;;6.88;;
6547;SDS011;3307;52.416;16.862;2022-11-03T10:38:40;7.97;;;6.22;;
6547;SDS011;3307;52.416;16.862;2022-11-03T10:41:11;10.02;;;6.05;;
6547;SDS011;3307;52.416;16.862;2022-11-03T10:43:37;9.90;;;6.90;;
6547;SDS011;3307;52.416;16.862;2022-11-03T10:46:19;8.63;;;5.82;;
6547;SDS011;3307;52.416;16.862;2022-11-03T10:51:38;12.73;;;6.53;;
6547;SDS011;3307;52.416;16.862;2022-11-03T10:54:05;11.47;;;7.07;;
6547;SDS011;3307;52.416;16.862;2022-11-03T10:56:34;11.30;;;7.05;;
6547;SDS011;3307;52.416;16.862;2022-11-03T10:58:59;11.40;;;6.50;;
6547;SDS011;3307;52.416;16.862;2022-11-03T11:01:25;11.30;;;6.83;;
6547;SDS011;3307;52.416;16.862;2022-11-03T11:03:51;9.57;;;6.20;;
6547;SDS011;3307;52.416;16.862;2022-11-03T11:06:34;10.67;;;5.47;;
6547;SDS011;3307;52.416;16.862;2022-11-03T11:09:01;14.15;;;5.65;;
6547;SDS011;3307;52.416;16.862;2022-11-03T11:11:27;12.05;;;5.65;;
6547;SDS011;3307;52.416;16.862;2022-11-03T11:19:19;10.45;;;4.72;;
6547;SDS011;3307;52.416;16.862;2022-11-03T11:24:11;5.77;;;4.10;;
6547;SDS011;3307;52.416;16.862;2022-11-03T11:26:37;7.07;;;3.90;;
6547;SDS011;3307;52.416;16.862;2022-11-03T11:31:40;10.02;;;4.90;;
6547;SDS011;3307;52.416;16.862;2022-11-03T11:36:36;6.47;;;4.43;;
6547;SDS011;3307;52.416;16.862;2022-11-03T11:39:06;5.68;;;4.72;;
6547;SDS011;3307;52.416;16.862;2022-11-03T11:58:20;5.97;;;3.70;;
6547;SDS011;3307;52.416;16.862;2022-11-03T12:01:00;7.13;;;3.97;;
6547;SDS011;3307;52.416;16.862;2022-11-03T12:03:35;4.57;;;3.67;;
6547;SDS011;3307;52.416;16.862;2022-11-03T12:06:01;7.68;;;3.85;;
6547;SDS011;3307;52.416;16.862;2022-11-03T12:08:28;8.30;;;3.63;;
6547;SDS011;3307;52.416;16.862;2022-11-03T12:10:56;6.07;;;3.42;;
6547;SDS011;3307;52.416;16.862;2022-11-03T12:16:05;5.50;;;3.33;;
6547;SDS011;3307;52.416;16.862;2022-11-03T12:18:40;7.13;;;3.77;;
6547;SDS011;3307;52.416;16.862;2022-11-03T12:21:08;6.28;;;3.83;;
6547;SDS011;3307;52.416;16.862;2022-11-03T12:26:05;5.55;;;3.53;;
6547;SDS011;3307;52.416;16.862;2022-11-03T12:28:49;6.60;;;3.83;;
6547;SDS011;3307;52.416;16.862;2022-11-03T12:31:15;6.57;;;3.67;;
6547;SDS011;3307;52.416;16.862;2022-11-03T12:33:40;4.47;;;3.50;;
6547;SDS011;3307;52.416;16.862;2022-11-03T12:36:06;5.80;;;3.13;;
6547;SDS011;3307;52.416;16.862;2022-11-03T12:38:31;8.40;;;3.90;;
6547;SDS011;3307;52.416;16.862;2022-11-03T12:40:57;6.07;;;4.50;;
6547;SDS011;3307;52.416;16.862;2022-11-03T12:43:42;6.17;;;3.93;;
6547;SDS011;3307;52.416;16.862;2022-11-03T12:46:07;5.60;;;3.90;;
6547;SDS011;3307;52.416;16.862;2022-11-03T12:48:33;5.73;;;3.50;;
6547;SDS011;3307;52.416;16.862;2022-11-03T12:50:58;8.80;;;3.47;;
6547;SDS011;3307;52.416;16.862;2022-11-03T12:53:24;4.10;;;3.23;;
6547;SDS011;3307;52.416;16.862;2022-11-03T12:55:49;3.60;;;2.90;;
6547;SDS011;3307;52.416;16.862;2022-11-03T12:58:14;7.50;;;3.43;;
6547;SDS011;3307;52.416;16.862;2022-11-03T13:00:40;6.47;;;2.80;;
6547;SDS011;3307;52.416;16.862;2022-11-03T13:03:05;6.43;;;2.70;;
6547;SDS011;3307;52.416;16.862;2022-11-03T13:05:31;6.90;;;2.50;;
6547;SDS011;3307;52.416;16.862;2022-11-03T13:07:56;6.40;;;3.30;;
6547;SDS011;3307;52.416;16.862;2022-11-03T13:10:22;3.70;;;2.50;;
6547;SDS011;3307;52.416;16.862;2022-11-03T13:12:47;5.97;;;2.87;;
6547;SDS011;3307;52.416;16.862;2022-11-03T13:15:13;4.33;;;3.17;;
6547;SDS011;3307;52.416;16.862;2022-11-03T13:17:40;9.13;;;3.30;;
6547;SDS011;3307;52.416;16.862;2022-11-03T13:20:06;6.67;;;3.73;;
6547;SDS011;3307;52.416;16.862;2022-11-03T13:22:32;4.50;;;2.70;;
6547;SDS011;3307;52.416;16.862;2022-11-03T13:24:57;4.43;;;3.67;;
6547;SDS011;3307;52.416;16.862;2022-11-03T13:27:23;6.07;;;3.43;;
6547;SDS011;3307;52.416;16.862;2022-11-03T13:29:48;7.10;;;3.67;;
6547;SDS011;3307;52.416;16.862;2022-11-03T13:32:14;4.30;;;3.23;;
6547;SDS011;3307;52.416;16.862;2022-11-03T13:34:39;9.00;;;4.10;;
6547;SDS011;3307;52.416;16.862;2022-11-03T13:37:04;10.40;;;3.97;;
6547;SDS011;3307;52.416;16.862;2022-11-03T13:39:30;13.30;;;4.03;;
6547;SDS011;3307;52.416;16.862;2022-11-03T13:41:55;7.30;;;4.43;;
6547;SDS011;3307;52.416;16.862;2022-11-03T13:44:21;7.13;;;4.33;;
6547;SDS011;3307;52.416;16.862;2022-11-03T13:46:46;9.50;;;4.30;;
6547;SDS011;3307;52.416;16.862;2022-11-03T13:49:11;9.50;;;4.00;;
6547;SDS011;3307;52.416;16.862;2022-11-03T13:51:37;6.70;;;4.30;;
6547;SDS011;3307;52.416;16.862;2022-11-03T13:54:02;11.53;;;4.70;;
6547;SDS011;3307;52.416;16.862;2022-11-03T13:56:28;9.47;;;4.07;;
6547;SDS011;3307;52.416;16.862;2022-11-03T13:58:53;8.43;;;4.50;;
6547;SDS011;3307;52.416;16.862;2022-11-03T14:01:19;13.33;;;9.10;;
6547;SDS011;3307;52.416;16.862;2022-11-03T14:03:45;16.53;;;5.27;;
6547;SDS011;3307;52.416;16.862;2022-11-03T14:06:10;6.70;;;4.40;;
6547;SDS011;3307;52.416;16.862;2022-11-03T14:08:35;5.83;;;4.33;;
6547;SDS011;3307;52.416;16.862;2022-11-03T14:11:01;8.83;;;4.37;;
6547;SDS011;3307;52.416;16.862;2022-11-03T14:13:46;5.68;;;3.80;;
6547;SDS011;3307;52.416;16.862;2022-11-03T14:16:12;7.20;;;4.47;;
6547;SDS011;3307;52.416;16.862;2022-11-03T14:18:37;6.80;;;4.50;;
6547;SDS011;3307;52.416;16.862;2022-11-03T14:21:02;7.03;;;4.60;;
6547;SDS011;3307;52.416;16.862;2022-11-03T14:23:28;9.50;;;5.17;;
6547;SDS011;3307;52.416;16.862;2022-11-03T14:25:53;6.77;;;3.90;;
6547;SDS011;3307;52.416;16.862;2022-11-03T14:28:19;10.93;;;4.83;;
6547;SDS011;3307;52.416;16.862;2022-11-03T14:30:44;8.37;;;4.80;;
6547;SDS011;3307;52.416;16.862;2022-11-03T14:33:09;10.60;;;5.20;;
6547;SDS011;3307;52.416;16.862;2022-11-03T14:35:35;15.00;;;7.53;;
6547;SDS011;3307;52.416;16.862;2022-11-03T14:38:01;8.17;;;4.90;;
6547;SDS011;3307;52.416;16.862;2022-11-03T14:40:26;8.37;;;5.10;;
6547;SDS011;3307;52.416;16.862;2022-11-03T14:43:10;10.20;;;5.20;;
6547;SDS011;3307;52.416;16.862;2022-11-03T14:45:35;9.93;;;5.93;;
6547;SDS011;3307;52.416;16.862;2022-11-03T14:48:01;7.20;;;5.83;;
6547;SDS011;3307;52.416;16.862;2022-11-03T14:50:26;13.03;;;7.07;;
6547;SDS011;3307;52.416;16.862;2022-11-03T14:52:51;9.17;;;6.77;;
6547;SDS011;3307;52.416;16.862;2022-11-03T14:55:17;9.40;;;6.67;;
6547;SDS011;3307;52.416;16.862;2022-11-03T14:57:42;7.80;;;6.80;;
6547;SDS011;3307;52.416;16.862;2022-11-03T15:00:08;11.47;;;7.57;;
6547;SDS011;3307;52.416;16.862;2022-11-03T15:02:35;14.18;;;7.82;;
6547;SDS011;3307;52.416;16.862;2022-11-03T15:05:00;11.40;;;7.97;;
6547;SDS011;3307;52.416;16.862;2022-11-03T15:07:25;15.20;;;9.67;;
6547;SDS011;3307;52.416;16.862;2022-11-03T15:09:51;18.23;;;11.50;;
6547;SDS011;3307;52.416;16.862;2022-11-03T15:12:16;18.07;;;15.27;;
6547;SDS011;3307;52.416;16.862;2022-11-03T15:14:42;18.10;;;10.93;;
6547;SDS011;3307;52.416;16.862;2022-11-03T15:17:07;14.57;;;10.80;;
6547;SDS011;3307;52.416;16.862;2022-11-03T15:19:33;22.70;;;12.80;;
6547;SDS011;3307;52.416;16.862;2022-11-03T15:21:58;25.73;;;13.83;;
6547;SDS011;3307;52.416;16.862;2022-11-03T15:24:23;26.40;;;13.77;;
6547;SDS011;3307;52.416;16.862;2022-11-03T15:26:49;32.43;;;14.57;;
6547;SDS011;3307;52.416;16.862;2022-11-03T15:29:15;27.50;;;14.90;;
6547;SDS011;3307;52.416;16.862;2022-11-03T15:31:40;27.30;;;15.63;;
6547;SDS011;3307;52.416;16.862;2022-11-03T15:34:06;23.83;;;14.20;;
6547;SDS011;3307;52.416;16.862;2022-11-03T15:36:31;23.20;;;15.37;;
6547;SDS011;3307;52.416;16.862;2022-11-03T15:38:57;22.97;;;13.97;;
6547;SDS011;3307;52.416;16.862;2022-11-03T15:41:22;20.50;;;13.50;;
6547;SDS011;3307;52.416;16.862;2022-11-03T15:43:48;20.20;;;13.13;;
6547;SDS011;3307;52.416;16.862;2022-11-03T15:46:14;18.00;;;11.18;;
6547;SDS011;3307;52.416;16.862;2022-11-03T15:48:41;21.58;;;14.77;;
6547;SDS011;3307;52.416;16.862;2022-11-03T15:51:07;15.00;;;13.05;;
6547;SDS011;3307;52.416;16.862;2022-11-03T15:53:33;21.00;;;15.47;;
6547;SDS011;3307;52.416;16.862;2022-11-03T15:55:58;16.60;;;13.43;;
6547;SDS011;3307;52.416;16.862;2022-11-03T15:58:24;18.40;;;14.43;;
6547;SDS011;3307;52.416;16.862;2022-11-03T16:00:49;20.80;;;15.40;;
6547;SDS011;3307;52.416;16.862;2022-11-03T16:03:15;21.67;;;15.73;;